EGHI/SOU METAR and TAF weather

Enter ICAO airport designator
Station Type Date Time Source
EGHI METAR 2019/05/25 08:50 UTC NOAA

EGHI 250850Z 30004KT 240V340 9999 FEW025 SCT036 17/11 Q1020


Station Type Date Time Source
EGHI Decoded METAR 2019/05/25 08:50 UTC NOAA

Southampton / Weather Centre, United Kingdom (EGHI) 50-54N 001-24W 0M
May 25, 2019 - 04:50 AM EDT / 2019.05.25 0850 UTC
Wind: from the WNW (300 degrees) at 5 MPH (4 KT) (direction variable):0
Visibility: greater than 7 mile(s):0
Sky conditions: partly cloudy
Temperature: 62 F (17 C)
Dew Point: 51 F (11 C)
Relative Humidity: 67%
Pressure (altimeter): 30.12 in. Hg (1020 hPa)
ob: EGHI 250850Z 30004KT 240V340 9999 FEW025 SCT036 17/11 Q1020
cycle: 9

Station Type Date Time Source
EGHI TAF 2016/03/02 12:00 UTC NOAA

TAF EGHI 021104Z 0212/0221 28015G25KT 9999 SCT020
TEMPO 0212/0221 29020G35KT PROB30
TEMPO 0212/0213 4000 SHRA BKN012CB
TEMPO 0218/0221 BKN014

Example: see airport list